sensor_id;sensor_type;location;lat;lon;timestamp;P1;durP1;ratioP1;P2;durP2;ratioP2
26622;SDS011;14254;50.968;5.366;2022-09-14T00:02:23;16.02;;;6.25;;
26622;SDS011;14254;50.968;5.366;2022-09-14T00:04:49;18.15;;;6.18;;
26622;SDS011;14254;50.968;5.366;2022-09-14T00:07:15;11.18;;;6.38;;
26622;SDS011;14254;50.968;5.366;2022-09-14T00:09:41;18.83;;;6.00;;
26622;SDS011;14254;50.968;5.366;2022-09-14T00:12:08;13.15;;;6.13;;
26622;SDS011;14254;50.968;5.366;2022-09-14T00:14:34;10.95;;;6.10;;
26622;SDS011;14254;50.968;5.366;2022-09-14T00:17:00;14.35;;;6.72;;
26622;SDS011;14254;50.968;5.366;2022-09-14T00:19:26;15.82;;;6.30;;
26622;SDS011;14254;50.968;5.366;2022-09-14T00:21:55;10.30;;;5.85;;
26622;SDS011;14254;50.968;5.366;2022-09-14T00:24:22;15.40;;;6.05;;
26622;SDS011;14254;50.968;5.366;2022-09-14T00:26:49;12.77;;;6.53;;
26622;SDS011;14254;50.968;5.366;2022-09-14T00:29:15;15.15;;;6.43;;
26622;SDS011;14254;50.968;5.366;2022-09-14T00:31:41;10.75;;;5.95;;
26622;SDS011;14254;50.968;5.366;2022-09-14T00:34:08;9.20;;;5.95;;
26622;SDS011;14254;50.968;5.366;2022-09-14T00:36:38;15.07;;;5.82;;
26622;SDS011;14254;50.968;5.366;2022-09-14T00:39:06;16.95;;;6.80;;
26622;SDS011;14254;50.968;5.366;2022-09-14T00:41:33;14.50;;;6.70;;
26622;SDS011;14254;50.968;5.366;2022-09-14T00:46:36;18.33;;;5.35;;
26622;SDS011;14254;50.968;5.366;2022-09-14T00:49:14;10.88;;;6.63;;
26622;SDS011;14254;50.968;5.366;2022-09-14T00:51:42;16.63;;;7.95;;
26622;SDS011;14254;50.968;5.366;2022-09-14T00:54:18;16.65;;;7.45;;
26622;SDS011;14254;50.968;5.366;2022-09-14T00:56:45;13.93;;;6.00;;
26622;SDS011;14254;50.968;5.366;2022-09-14T00:59:13;11.20;;;6.80;;
26622;SDS011;14254;50.968;5.366;2022-09-14T01:01:46;10.68;;;6.63;;
26622;SDS011;14254;50.968;5.366;2022-09-14T01:04:12;15.00;;;6.70;;
26622;SDS011;14254;50.968;5.366;2022-09-14T01:06:40;14.25;;;6.55;;
26622;SDS011;14254;50.968;5.366;2022-09-14T01:15:11;19.13;;;7.85;;
26622;SDS011;14254;50.968;5.366;2022-09-14T01:18:05;14.23;;;7.68;;
26622;SDS011;14254;50.968;5.366;2022-09-14T01:21:08;20.75;;;7.97;;
26622;SDS011;14254;50.968;5.366;2022-09-14T01:35:01;12.13;;;7.55;;
26622;SDS011;14254;50.968;5.366;2022-09-14T01:37:54;19.40;;;7.07;;
26622;SDS011;14254;50.968;5.366;2022-09-14T01:40:34;12.20;;;8.00;;
26622;SDS011;14254;50.968;5.366;2022-09-14T01:43:10;19.77;;;6.82;;
26622;SDS011;14254;50.968;5.366;2022-09-14T01:45:41;14.43;;;7.97;;
26622;SDS011;14254;50.968;5.366;2022-09-14T01:48:11;13.77;;;7.40;;
26622;SDS011;14254;50.968;5.366;2022-09-14T01:50:42;14.98;;;7.57;;
26622;SDS011;14254;50.968;5.366;2022-09-14T01:56:10;14.32;;;8.50;;
26622;SDS011;14254;50.968;5.366;2022-09-14T01:59:02;20.98;;;8.57;;
26622;SDS011;14254;50.968;5.366;2022-09-14T02:01:40;17.55;;;8.70;;
26622;SDS011;14254;50.968;5.366;2022-09-14T02:04:13;23.05;;;9.27;;
26622;SDS011;14254;50.968;5.366;2022-09-14T02:06:43;17.23;;;8.90;;
26622;SDS011;14254;50.968;5.366;2022-09-14T02:09:11;16.70;;;8.40;;
26622;SDS011;14254;50.968;5.366;2022-09-14T02:11:40;16.70;;;8.95;;
26622;SDS011;14254;50.968;5.366;2022-09-14T02:14:06;23.63;;;8.30;;
26622;SDS011;14254;50.968;5.366;2022-09-14T02:16:32;17.00;;;8.00;;
26622;SDS011;14254;50.968;5.366;2022-09-14T02:18:58;17.67;;;7.88;;
26622;SDS011;14254;50.968;5.366;2022-09-14T02:21:27;19.20;;;8.07;;
26622;SDS011;14254;50.968;5.366;2022-09-14T02:23:55;14.02;;;8.65;;
26622;SDS011;14254;50.968;5.366;2022-09-14T02:26:22;14.93;;;8.43;;
26622;SDS011;14254;50.968;5.366;2022-09-14T02:28:48;13.63;;;10.10;;
26622;SDS011;14254;50.968;5.366;2022-09-14T02:34:12;16.42;;;8.07;;
26622;SDS011;14254;50.968;5.366;2022-09-14T02:36:51;15.95;;;8.38;;
26622;SDS011;14254;50.968;5.366;2022-09-14T02:41:58;16.60;;;9.30;;
26622;SDS011;14254;50.968;5.366;2022-09-14T02:47:27;21.48;;;8.75;;
26622;SDS011;14254;50.968;5.366;2022-09-14T02:50:23;14.05;;;8.75;;
26622;SDS011;14254;50.968;5.366;2022-09-14T02:55:46;15.70;;;9.55;;
26622;SDS011;14254;50.968;5.366;2022-09-14T02:58:15;23.33;;;10.45;;
26622;SDS011;14254;50.968;5.366;2022-09-14T03:00:42;17.77;;;9.95;;
26622;SDS011;14254;50.968;5.366;2022-09-14T03:03:10;14.80;;;9.32;;
26622;SDS011;14254;50.968;5.366;2022-09-14T03:05:37;21.85;;;9.55;;
26622;SDS011;14254;50.968;5.366;2022-09-14T03:08:04;19.40;;;10.77;;
26622;SDS011;14254;50.968;5.366;2022-09-14T03:10:30;15.80;;;10.13;;
26622;SDS011;14254;50.968;5.366;2022-09-14T03:12:57;18.55;;;10.00;;
26622;SDS011;14254;50.968;5.366;2022-09-14T03:15:23;19.90;;;11.32;;
26622;SDS011;14254;50.968;5.366;2022-09-14T03:17:49;22.98;;;12.27;;
26622;SDS011;14254;50.968;5.366;2022-09-14T03:20:16;20.38;;;11.25;;
26622;SDS011;14254;50.968;5.366;2022-09-14T03:22:44;21.20;;;11.95;;
26622;SDS011;14254;50.968;5.366;2022-09-14T03:25:10;27.10;;;12.82;;
26622;SDS011;14254;50.968;5.366;2022-09-14T03:27:35;25.25;;;12.15;;
26622;SDS011;14254;50.968;5.366;2022-09-14T03:30:02;22.27;;;12.43;;
26622;SDS011;14254;50.968;5.366;2022-09-14T03:32:29;21.90;;;12.90;;
26622;SDS011;14254;50.968;5.366;2022-09-14T03:34:54;21.75;;;13.48;;
26622;SDS011;14254;50.968;5.366;2022-09-14T03:37:21;22.65;;;13.15;;
26622;SDS011;14254;50.968;5.366;2022-09-14T03:39:46;23.38;;;14.10;;
26622;SDS011;14254;50.968;5.366;2022-09-14T03:42:12;23.52;;;13.52;;
26622;SDS011;14254;50.968;5.366;2022-09-14T03:44:38;25.10;;;14.27;;
26622;SDS011;14254;50.968;5.366;2022-09-14T03:47:03;24.10;;;14.55;;
26622;SDS011;14254;50.968;5.366;2022-09-14T03:49:29;26.92;;;15.23;;
26622;SDS011;14254;50.968;5.366;2022-09-14T03:51:55;28.05;;;15.63;;
26622;SDS011;14254;50.968;5.366;2022-09-14T03:54:20;27.67;;;15.18;;
26622;SDS011;14254;50.968;5.366;2022-09-14T03:56:46;31.10;;;15.48;;
26622;SDS011;14254;50.968;5.366;2022-09-14T03:59:11;27.20;;;15.98;;
26622;SDS011;14254;50.968;5.366;2022-09-14T04:01:37;24.48;;;16.48;;
26622;SDS011;14254;50.968;5.366;2022-09-14T04:04:03;27.85;;;16.95;;
26622;SDS011;14254;50.968;5.366;2022-09-14T04:06:28;33.40;;;16.52;;
26622;SDS011;14254;50.968;5.366;2022-09-14T04:08:56;29.80;;;16.35;;
26622;SDS011;14254;50.968;5.366;2022-09-14T04:11:23;34.40;;;17.08;;
26622;SDS011;14254;50.968;5.366;2022-09-14T04:13:50;31.65;;;17.63;;
26622;SDS011;14254;50.968;5.366;2022-09-14T04:16:16;32.25;;;18.13;;
26622;SDS011;14254;50.968;5.366;2022-09-14T04:18:44;27.48;;;17.40;;
26622;SDS011;14254;50.968;5.366;2022-09-14T04:21:17;32.90;;;17.52;;
26622;SDS011;14254;50.968;5.366;2022-09-14T04:23:45;31.15;;;17.92;;
26622;SDS011;14254;50.968;5.366;2022-09-14T04:26:12;37.28;;;18.70;;
26622;SDS011;14254;50.968;5.366;2022-09-14T04:28:42;27.35;;;18.58;;
26622;SDS011;14254;50.968;5.366;2022-09-14T04:31:09;37.45;;;18.60;;
26622;SDS011;14254;50.968;5.366;2022-09-14T04:33:36;31.08;;;20.25;;
26622;SDS011;14254;50.968;5.366;2022-09-14T04:36:04;32.85;;;20.52;;
26622;SDS011;14254;50.968;5.366;2022-09-14T04:38:32;33.15;;;20.98;;
26622;SDS011;14254;50.968;5.366;2022-09-14T04:40:59;34.00;;;19.85;;
26622;SDS011;14254;50.968;5.366;2022-09-14T04:43:28;31.08;;;20.05;;
26622;SDS011;14254;50.968;5.366;2022-09-14T04:45:59;29.73;;;19.77;;
26622;SDS011;14254;50.968;5.366;2022-09-14T04:48:27;28.60;;;20.05;;
26622;SDS011;14254;50.968;5.366;2022-09-14T04:50:59;31.95;;;21.25;;
26622;SDS011;14254;50.968;5.366;2022-09-14T04:53:28;28.58;;;21.75;;
26622;SDS011;14254;50.968;5.366;2022-09-14T04:55:58;28.55;;;20.67;;
26622;SDS011;14254;50.968;5.366;2022-09-14T04:58:25;34.40;;;21.10;;
26622;SDS011;14254;50.968;5.366;2022-09-14T05:00:52;32.78;;;21.95;;
26622;SDS011;14254;50.968;5.366;2022-09-14T05:03:19;34.88;;;23.02;;
26622;SDS011;14254;50.968;5.366;2022-09-14T05:05:46;37.08;;;24.23;;
26622;SDS011;14254;50.968;5.366;2022-09-14T05:08:12;33.13;;;23.65;;
26622;SDS011;14254;50.968;5.366;2022-09-14T05:10:37;40.08;;;24.63;;
26622;SDS011;14254;50.968;5.366;2022-09-14T05:13:03;40.15;;;24.85;;
26622;SDS011;14254;50.968;5.366;2022-09-14T05:15:29;39.00;;;25.13;;
26622;SDS011;14254;50.968;5.366;2022-09-14T05:17:54;39.55;;;23.92;;
26622;SDS011;14254;50.968;5.366;2022-09-14T05:20:20;36.13;;;25.20;;
26622;SDS011;14254;50.968;5.366;2022-09-14T05:22:48;42.85;;;24.45;;
26622;SDS011;14254;50.968;5.366;2022-09-14T05:25:15;38.60;;;24.15;;
26622;SDS011;14254;50.968;5.366;2022-09-14T05:27:41;35.17;;;24.55;;
26622;SDS011;14254;50.968;5.366;2022-09-14T05:30:07;41.85;;;26.90;;
26622;SDS011;14254;50.968;5.366;2022-09-14T05:32:33;41.25;;;27.05;;
26622;SDS011;14254;50.968;5.366;2022-09-14T05:34:58;42.38;;;26.25;;
26622;SDS011;14254;50.968;5.366;2022-09-14T05:37:24;39.88;;;26.40;;
26622;SDS011;14254;50.968;5.366;2022-09-14T05:39:50;40.95;;;25.02;;
26622;SDS011;14254;50.968;5.366;2022-09-14T05:42:15;35.10;;;26.20;;
26622;SDS011;14254;50.968;5.366;2022-09-14T05:44:41;35.22;;;26.48;;
26622;SDS011;14254;50.968;5.366;2022-09-14T05:47:07;41.40;;;24.80;;
26622;SDS011;14254;50.968;5.366;2022-09-14T05:49:32;39.92;;;24.33;;
26622;SDS011;14254;50.968;5.366;2022-09-14T05:51:58;41.42;;;24.30;;
26622;SDS011;14254;50.968;5.366;2022-09-14T05:54:24;42.97;;;25.17;;
26622;SDS011;14254;50.968;5.366;2022-09-14T05:56:49;37.47;;;23.02;;
26622;SDS011;14254;50.968;5.366;2022-09-14T05:59:15;32.45;;;21.70;;
26622;SDS011;14254;50.968;5.366;2022-09-14T06:01:40;33.75;;;21.05;;
26622;SDS011;14254;50.968;5.366;2022-09-14T06:04:07;39.25;;;23.02;;
26622;SDS011;14254;50.968;5.366;2022-09-14T06:06:35;33.63;;;22.95;;
26622;SDS011;14254;50.968;5.366;2022-09-14T06:09:01;32.70;;;21.27;;
26622;SDS011;14254;50.968;5.366;2022-09-14T06:11:28;36.55;;;22.73;;
26622;SDS011;14254;50.968;5.366;2022-09-14T06:13:57;34.95;;;22.60;;
26622;SDS011;14254;50.968;5.366;2022-09-14T06:16:23;34.35;;;21.83;;
26622;SDS011;14254;50.968;5.366;2022-09-14T06:18:52;35.28;;;22.67;;
26622;SDS011;14254;50.968;5.366;2022-09-14T06:21:19;29.52;;;21.20;;
26622;SDS011;14254;50.968;5.366;2022-09-14T06:23:46;26.50;;;18.50;;
26622;SDS011;14254;50.968;5.366;2022-09-14T06:26:13;28.77;;;20.48;;
26622;SDS011;14254;50.968;5.366;2022-09-14T06:28:40;36.75;;;20.77;;
26622;SDS011;14254;50.968;5.366;2022-09-14T06:31:06;30.88;;;20.70;;
26622;SDS011;14254;50.968;5.366;2022-09-14T06:33:35;30.45;;;20.52;;
26622;SDS011;14254;50.968;5.366;2022-09-14T06:36:07;32.88;;;20.05;;
26622;SDS011;14254;50.968;5.366;2022-09-14T06:38:36;29.50;;;20.10;;
26622;SDS011;14254;50.968;5.366;2022-09-14T06:41:04;32.00;;;22.00;;
26622;SDS011;14254;50.968;5.366;2022-09-14T06:43:32;27.30;;;18.98;;
26622;SDS011;14254;50.968;5.366;2022-09-14T06:46:01;33.30;;;20.40;;
26622;SDS011;14254;50.968;5.366;2022-09-14T06:48:27;28.10;;;20.38;;
26622;SDS011;14254;50.968;5.366;2022-09-14T06:50:54;28.02;;;19.35;;
26622;SDS011;14254;50.968;5.366;2022-09-14T06:53:20;26.17;;;19.33;;
26622;SDS011;14254;50.968;5.366;2022-09-14T06:55:46;27.13;;;18.35;;
26622;SDS011;14254;50.968;5.366;2022-09-14T06:58:12;26.63;;;18.98;;
26622;SDS011;14254;50.968;5.366;2022-09-14T07:00:37;21.63;;;17.63;;
26622;SDS011;14254;50.968;5.366;2022-09-14T07:03:03;23.67;;;17.48;;
26622;SDS011;14254;50.968;5.366;2022-09-14T07:05:29;25.23;;;16.90;;
26622;SDS011;14254;50.968;5.366;2022-09-14T07:07:55;21.15;;;16.35;;
26622;SDS011;14254;50.968;5.366;2022-09-14T07:10:21;20.88;;;16.83;;
26622;SDS011;14254;50.968;5.366;2022-09-14T07:12:51;22.10;;;17.05;;
26622;SDS011;14254;50.968;5.366;2022-09-14T07:15:22;26.52;;;17.30;;
26622;SDS011;14254;50.968;5.366;2022-09-14T07:17:47;20.98;;;16.63;;
26622;SDS011;14254;50.968;5.366;2022-09-14T07:20:13;19.73;;;15.27;;
26622;SDS011;14254;50.968;5.366;2022-09-14T07:22:39;15.98;;;14.15;;
26622;SDS011;14254;50.968;5.366;2022-09-14T07:25:05;20.48;;;13.90;;
26622;SDS011;14254;50.968;5.366;2022-09-14T07:27:32;20.35;;;14.18;;
26622;SDS011;14254;50.968;5.366;2022-09-14T07:29:58;19.30;;;14.70;;
26622;SDS011;14254;50.968;5.366;2022-09-14T07:32:23;18.75;;;14.45;;
26622;SDS011;14254;50.968;5.366;2022-09-14T07:34:49;18.83;;;14.85;;
26622;SDS011;14254;50.968;5.366;2022-09-14T07:37:15;19.65;;;14.52;;
26622;SDS011;14254;50.968;5.366;2022-09-14T07:39:40;15.82;;;14.07;;
26622;SDS011;14254;50.968;5.366;2022-09-14T07:42:06;17.45;;;13.55;;
26622;SDS011;14254;50.968;5.366;2022-09-14T07:44:32;15.38;;;13.05;;
26622;SDS011;14254;50.968;5.366;2022-09-14T07:46:57;16.73;;;13.18;;
26622;SDS011;14254;50.968;5.366;2022-09-14T07:49:23;18.02;;;14.32;;
26622;SDS011;14254;50.968;5.366;2022-09-14T07:51:49;17.60;;;13.10;;
26622;SDS011;14254;50.968;5.366;2022-09-14T07:54:17;14.80;;;13.00;;
26622;SDS011;14254;50.968;5.366;2022-09-14T07:56:43;14.68;;;12.80;;
26622;SDS011;14254;50.968;5.366;2022-09-14T07:59:09;14.23;;;12.68;;
26622;SDS011;14254;50.968;5.366;2022-09-14T08:01:36;13.63;;;12.23;;
26622;SDS011;14254;50.968;5.366;2022-09-14T08:04:02;13.45;;;11.98;;
26622;SDS011;14254;50.968;5.366;2022-09-14T08:06:29;14.27;;;11.85;;
26622;SDS011;14254;50.968;5.366;2022-09-14T08:08:55;15.43;;;12.57;;
26622;SDS011;14254;50.968;5.366;2022-09-14T08:11:29;14.98;;;12.65;;
26622;SDS011;14254;50.968;5.366;2022-09-14T08:13:58;14.40;;;12.88;;
26622;SDS011;14254;50.968;5.366;2022-09-14T08:16:35;14.05;;;12.52;;
26622;SDS011;14254;50.968;5.366;2022-09-14T08:19:06;14.95;;;13.38;;
26622;SDS011;14254;50.968;5.366;2022-09-14T08:21:36;15.30;;;13.43;;
26622;SDS011;14254;50.968;5.366;2022-09-14T08:24:02;15.02;;;13.43;;
26622;SDS011;14254;50.968;5.366;2022-09-14T08:26:28;15.02;;;13.45;;
26622;SDS011;14254;50.968;5.366;2022-09-14T08:28:55;14.85;;;13.25;;
26622;SDS011;14254;50.968;5.366;2022-09-14T08:31:24;15.82;;;14.18;;
26622;SDS011;14254;50.968;5.366;2022-09-14T08:33:52;16.23;;;13.90;;
26622;SDS011;14254;50.968;5.366;2022-09-14T08:36:23;18.23;;;14.47;;
26622;SDS011;14254;50.968;5.366;2022-09-14T08:38:50;15.55;;;13.93;;
26622;SDS011;14254;50.968;5.366;2022-09-14T08:46:40;21.13;;;15.90;;
26622;SDS011;14254;50.968;5.366;2022-09-14T08:49:22;15.52;;;13.65;;
26622;SDS011;14254;50.968;5.366;2022-09-14T08:54:49;18.13;;;16.23;;
26622;SDS011;14254;50.968;5.366;2022-09-14T08:57:20;22.25;;;15.85;;
26622;SDS011;14254;50.968;5.366;2022-09-14T09:00:07;19.92;;;16.52;;
26622;SDS011;14254;50.968;5.366;2022-09-14T09:08:05;23.65;;;15.85;;
26622;SDS011;14254;50.968;5.366;2022-09-14T09:10:32;19.67;;;17.58;;
26622;SDS011;14254;50.968;5.366;2022-09-14T09:13:03;20.27;;;18.02;;
26622;SDS011;14254;50.968;5.366;2022-09-14T09:18:18;24.00;;;17.98;;
26622;SDS011;14254;50.968;5.366;2022-09-14T09:21:03;21.27;;;17.55;;
26622;SDS011;14254;50.968;5.366;2022-09-14T09:23:35;22.80;;;18.90;;
26622;SDS011;14254;50.968;5.366;2022-09-14T09:26:05;28.10;;;20.17;;
26622;SDS011;14254;50.968;5.366;2022-09-14T09:28:42;25.85;;;19.75;;
26622;SDS011;14254;50.968;5.366;2022-09-14T09:31:12;31.05;;;20.88;;
26622;SDS011;14254;50.968;5.366;2022-09-14T09:33:39;25.50;;;20.10;;
26622;SDS011;14254;50.968;5.366;2022-09-14T09:36:06;23.70;;;18.92;;
26622;SDS011;14254;50.968;5.366;2022-09-14T09:38:35;23.60;;;19.15;;
26622;SDS011;14254;50.968;5.366;2022-09-14T09:41:15;21.27;;;18.65;;
26622;SDS011;14254;50.968;5.366;2022-09-14T09:44:02;27.85;;;21.27;;
26622;SDS011;14254;50.968;5.366;2022-09-14T09:46:34;24.55;;;19.42;;
26622;SDS011;14254;50.968;5.366;2022-09-14T09:51:38;23.92;;;19.25;;
26622;SDS011;14254;50.968;5.366;2022-09-14T09:54:06;24.15;;;18.85;;
26622;SDS011;14254;50.968;5.366;2022-09-14T09:56:36;21.67;;;17.35;;
26622;SDS011;14254;50.968;5.366;2022-09-14T09:59:34;21.30;;;17.17;;
26622;SDS011;14254;50.968;5.366;2022-09-14T10:04:55;29.58;;;17.63;;
26622;SDS011;14254;50.968;5.366;2022-09-14T10:07:29;20.45;;;16.92;;
26622;SDS011;14254;50.968;5.366;2022-09-14T10:09:58;21.63;;;16.35;;
26622;SDS011;14254;50.968;5.366;2022-09-14T10:12:38;27.48;;;17.75;;
26622;SDS011;14254;50.968;5.366;2022-09-14T10:15:23;24.42;;;17.75;;
26622;SDS011;14254;50.968;5.366;2022-09-14T10:20:25;26.88;;;18.85;;
26622;SDS011;14254;50.968;5.366;2022-09-14T10:22:51;21.10;;;17.95;;
26622;SDS011;14254;50.968;5.366;2022-09-14T10:27:47;23.00;;;16.85;;
26622;SDS011;14254;50.968;5.366;2022-09-14T10:30:23;22.67;;;18.05;;
26622;SDS011;14254;50.968;5.366;2022-09-14T10:32:54;25.08;;;18.98;;
26622;SDS011;14254;50.968;5.366;2022-09-14T10:40:41;22.20;;;17.67;;
26622;SDS011;14254;50.968;5.366;2022-09-14T10:43:18;23.55;;;16.50;;
26622;SDS011;14254;50.968;5.366;2022-09-14T10:46:08;21.50;;;18.20;;
26622;SDS011;14254;50.968;5.366;2022-09-14T10:51:36;23.52;;;18.73;;
26622;SDS011;14254;50.968;5.366;2022-09-14T10:54:17;22.17;;;18.10;;
26622;SDS011;14254;50.968;5.366;2022-09-14T11:00:00;19.52;;;17.05;;
26622;SDS011;14254;50.968;5.366;2022-09-14T11:07:54;19.05;;;16.25;;
26622;SDS011;14254;50.968;5.366;2022-09-14T11:10:44;20.30;;;15.77;;
26622;SDS011;14254;50.968;5.366;2022-09-14T11:16:20;23.88;;;17.92;;
26622;SDS011;14254;50.968;5.366;2022-09-14T11:24:16;23.83;;;15.38;;
26622;SDS011;14254;50.968;5.366;2022-09-14T11:32:39;19.42;;;14.57;;
26622;SDS011;14254;50.968;5.366;2022-09-14T11:35:20;18.35;;;15.13;;
26622;SDS011;14254;50.968;5.366;2022-09-14T11:38:00;21.55;;;16.35;;
26622;SDS011;14254;50.968;5.366;2022-09-14T11:43:08;16.85;;;14.77;;
26622;SDS011;14254;50.968;5.366;2022-09-14T11:45:47;19.30;;;17.00;;
26622;SDS011;14254;50.968;5.366;2022-09-14T11:48:38;22.00;;;17.48;;
26622;SDS011;14254;50.968;5.366;2022-09-14T11:51:17;19.35;;;17.02;;
26622;SDS011;14254;50.968;5.366;2022-09-14T11:53:48;18.65;;;16.52;;
26622;SDS011;14254;50.968;5.366;2022-09-14T11:56:24;18.73;;;15.23;;
26622;SDS011;14254;50.968;5.366;2022-09-14T11:58:53;20.40;;;15.57;;
26622;SDS011;14254;50.968;5.366;2022-09-14T12:11:47;6.87;;;5.20;;
26622;SDS011;14254;50.968;5.366;2022-09-14T12:19:39;8.50;;;5.78;;
26622;SDS011;14254;50.968;5.366;2022-09-14T12:25:03;6.25;;;4.93;;
26622;SDS011;14254;50.968;5.366;2022-09-14T12:27:40;8.30;;;4.22;;
26622;SDS011;14254;50.968;5.366;2022-09-14T12:33:01;4.05;;;3.17;;
26622;SDS011;14254;50.968;5.366;2022-09-14T12:35:34;9.32;;;3.70;;
26622;SDS011;14254;50.968;5.366;2022-09-14T12:40:54;3.83;;;3.13;;
26622;SDS011;14254;50.968;5.366;2022-09-14T12:46:49;3.83;;;3.40;;
26622;SDS011;14254;50.968;5.366;2022-09-14T12:49:01;5.03;;;3.55;;
26622;SDS011;14254;50.968;5.366;2022-09-14T12:51:41;3.97;;;3.30;;
26622;SDS011;14254;50.968;5.366;2022-09-14T12:57:01;7.65;;;4.20;;
26622;SDS011;14254;50.968;5.366;2022-09-14T13:04:54;7.90;;;5.75;;
26622;SDS011;14254;50.968;5.366;2022-09-14T13:07:22;6.90;;;6.30;;
26622;SDS011;14254;50.968;5.366;2022-09-14T13:09:54;7.88;;;6.32;;
26622;SDS011;14254;50.968;5.366;2022-09-14T13:14:54;11.55;;;7.30;;
26622;SDS011;14254;50.968;5.366;2022-09-14T13:17:24;8.20;;;6.35;;
26622;SDS011;14254;50.968;5.366;2022-09-14T13:19:59;8.63;;;7.55;;
26622;SDS011;14254;50.968;5.366;2022-09-14T13:22:29;8.25;;;7.32;;
26622;SDS011;14254;50.968;5.366;2022-09-14T13:24:57;9.25;;;6.65;;
26622;SDS011;14254;50.968;5.366;2022-09-14T13:30:05;8.10;;;7.30;;
26622;SDS011;14254;50.968;5.366;2022-09-14T13:32:34;9.23;;;7.32;;
26622;SDS011;14254;50.968;5.366;2022-09-14T13:35:14;11.63;;;9.07;;
26622;SDS011;14254;50.968;5.366;2022-09-14T13:37:50;11.60;;;8.57;;
26622;SDS011;14254;50.968;5.366;2022-09-14T13:40:16;15.32;;;9.48;;
26622;SDS011;14254;50.968;5.366;2022-09-14T13:42:47;13.10;;;9.88;;
26622;SDS011;14254;50.968;5.366;2022-09-14T13:45:13;10.65;;;8.75;;
26622;SDS011;14254;50.968;5.366;2022-09-14T13:47:39;11.82;;;8.57;;
26622;SDS011;14254;50.968;5.366;2022-09-14T13:50:05;8.93;;;8.13;;
26622;SDS011;14254;50.968;5.366;2022-09-14T13:52:35;10.63;;;8.05;;
26622;SDS011;14254;50.968;5.366;2022-09-14T14:00:57;9.23;;;7.53;;
26622;SDS011;14254;50.968;5.366;2022-09-14T14:03:31;8.68;;;7.78;;
26622;SDS011;14254;50.968;5.366;2022-09-14T14:11:34;11.18;;;8.52;;
26622;SDS011;14254;50.968;5.366;2022-09-14T14:16:39;10.68;;;8.23;;
26622;SDS011;14254;50.968;5.366;2022-09-14T14:19:24;11.98;;;9.40;;
26622;SDS011;14254;50.968;5.366;2022-09-14T14:22:10;11.02;;;9.82;;
26622;SDS011;14254;50.968;5.366;2022-09-14T14:24:45;9.95;;;8.75;;
26622;SDS011;14254;50.968;5.366;2022-09-14T14:29:57;10.05;;;9.05;;
26622;SDS011;14254;50.968;5.366;2022-09-14T14:32:25;10.55;;;9.48;;
26622;SDS011;14254;50.968;5.366;2022-09-14T14:34:51;10.43;;;9.32;;
26622;SDS011;14254;50.968;5.366;2022-09-14T14:37:18;10.73;;;8.18;;
26622;SDS011;14254;50.968;5.366;2022-09-14T14:39:44;10.93;;;8.63;;
26622;SDS011;14254;50.968;5.366;2022-09-14T14:42:11;10.23;;;9.15;;
26622;SDS011;14254;50.968;5.366;2022-09-14T14:44:39;11.43;;;8.45;;
26622;SDS011;14254;50.968;5.366;2022-09-14T14:47:06;10.77;;;9.18;;
26622;SDS011;14254;50.968;5.366;2022-09-14T14:49:31;9.82;;;8.88;;
26622;SDS011;14254;50.968;5.366;2022-09-14T14:51:57;12.18;;;10.07;;
26622;SDS011;14254;50.968;5.366;2022-09-14T14:54:23;15.18;;;11.60;;
26622;SDS011;14254;50.968;5.366;2022-09-14T14:56:49;13.82;;;11.60;;
26622;SDS011;14254;50.968;5.366;2022-09-14T14:59:22;14.65;;;13.13;;
26622;SDS011;14254;50.968;5.366;2022-09-14T15:01:51;14.10;;;12.75;;
26622;SDS011;14254;50.968;5.366;2022-09-14T15:04:18;17.10;;;14.95;;
26622;SDS011;14254;50.968;5.366;2022-09-14T15:06:44;17.02;;;14.80;;
26622;SDS011;14254;50.968;5.366;2022-09-14T15:09:12;14.98;;;13.48;;
26622;SDS011;14254;50.968;5.366;2022-09-14T15:11:49;16.80;;;14.52;;
26622;SDS011;14254;50.968;5.366;2022-09-14T15:14:19;18.20;;;15.13;;
26622;SDS011;14254;50.968;5.366;2022-09-14T15:16:46;17.10;;;14.73;;
26622;SDS011;14254;50.968;5.366;2022-09-14T15:19:12;16.98;;;14.30;;
26622;SDS011;14254;50.968;5.366;2022-09-14T15:21:39;19.25;;;15.98;;
26622;SDS011;14254;50.968;5.366;2022-09-14T15:24:06;17.15;;;15.25;;
26622;SDS011;14254;50.968;5.366;2022-09-14T15:26:32;18.38;;;15.57;;
26622;SDS011;14254;50.968;5.366;2022-09-14T15:28:59;18.13;;;15.85;;
26622;SDS011;14254;50.968;5.366;2022-09-14T15:31:25;17.45;;;15.68;;
26622;SDS011;14254;50.968;5.366;2022-09-14T15:33:50;17.70;;;15.80;;
26622;SDS011;14254;50.968;5.366;2022-09-14T15:39:00;17.55;;;15.75;;
26622;SDS011;14254;50.968;5.366;2022-09-14T15:41:26;17.55;;;14.82;;
26622;SDS011;14254;50.968;5.366;2022-09-14T15:43:52;16.83;;;14.43;;
26622;SDS011;14254;50.968;5.366;2022-09-14T15:46:17;17.10;;;13.48;;
26622;SDS011;14254;50.968;5.366;2022-09-14T15:48:43;26.23;;;14.40;;
26622;SDS011;14254;50.968;5.366;2022-09-14T15:51:09;19.17;;;13.18;;
26622;SDS011;14254;50.968;5.366;2022-09-14T15:53:36;19.65;;;12.65;;
26622;SDS011;14254;50.968;5.366;2022-09-14T15:56:08;16.63;;;13.15;;
26622;SDS011;14254;50.968;5.366;2022-09-14T15:58:35;18.15;;;13.55;;
26622;SDS011;14254;50.968;5.366;2022-09-14T16:01:11;16.27;;;11.40;;
26622;SDS011;14254;50.968;5.366;2022-09-14T16:03:39;16.75;;;13.10;;
26622;SDS011;14254;50.968;5.366;2022-09-14T16:06:07;13.48;;;12.07;;
26622;SDS011;14254;50.968;5.366;2022-09-14T16:08:34;13.60;;;11.07;;
26622;SDS011;14254;50.968;5.366;2022-09-14T16:11:00;15.52;;;11.27;;
26622;SDS011;14254;50.968;5.366;2022-09-14T16:13:27;14.13;;;9.75;;
26622;SDS011;14254;50.968;5.366;2022-09-14T16:16:15;16.10;;;10.18;;
26622;SDS011;14254;50.968;5.366;2022-09-14T16:18:40;13.07;;;10.48;;
26622;SDS011;14254;50.968;5.366;2022-09-14T16:21:07;14.32;;;10.75;;
26622;SDS011;14254;50.968;5.366;2022-09-14T16:23:41;14.70;;;11.38;;
26622;SDS011;14254;50.968;5.366;2022-09-14T16:26:10;18.08;;;11.10;;
26622;SDS011;14254;50.968;5.366;2022-09-14T16:28:37;14.90;;;10.98;;
26622;SDS011;14254;50.968;5.366;2022-09-14T16:31:08;14.32;;;10.63;;
26622;SDS011;14254;50.968;5.366;2022-09-14T16:33:39;15.77;;;11.48;;
26622;SDS011;14254;50.968;5.366;2022-09-14T16:36:11;14.70;;;10.90;;
26622;SDS011;14254;50.968;5.366;2022-09-14T16:38:39;13.98;;;11.27;;
26622;SDS011;14254;50.968;5.366;2022-09-14T16:41:05;11.85;;;10.40;;
26622;SDS011;14254;50.968;5.366;2022-09-14T16:43:32;19.00;;;10.73;;
26622;SDS011;14254;50.968;5.366;2022-09-14T16:46:14;18.40;;;11.13;;
26622;SDS011;14254;50.968;5.366;2022-09-14T16:51:10;13.05;;;9.90;;
26622;SDS011;14254;50.968;5.366;2022-09-14T16:53:38;17.13;;;11.05;;
26622;SDS011;14254;50.968;5.366;2022-09-14T16:58:31;16.30;;;11.57;;
26622;SDS011;14254;50.968;5.366;2022-09-14T17:01:08;13.90;;;11.63;;
26622;SDS011;14254;50.968;5.366;2022-09-14T17:03:39;15.83;;;10.90;;
26622;SDS011;14254;50.968;5.366;2022-09-14T17:06:07;15.48;;;10.25;;
26622;SDS011;14254;50.968;5.366;2022-09-14T17:08:35;17.25;;;10.88;;
26622;SDS011;14254;50.968;5.366;2022-09-14T17:11:01;19.05;;;11.27;;
26622;SDS011;14254;50.968;5.366;2022-09-14T17:13:28;15.23;;;11.65;;
26622;SDS011;14254;50.968;5.366;2022-09-14T17:18:31;18.08;;;11.75;;
26622;SDS011;14254;50.968;5.366;2022-09-14T17:20:59;17.35;;;11.43;;
26622;SDS011;14254;50.968;5.366;2022-09-14T17:23:27;16.83;;;11.55;;